sensor_id;sensor_type;location;lat;lon;timestamp;temperature;humidity
13652;DHT22;6899;51.546;6.912;2022-10-17T00:01:39;12.20;99.90
13652;DHT22;6899;51.546;6.912;2022-10-17T00:04:06;12.20;99.90
13652;DHT22;6899;51.546;6.912;2022-10-17T00:06:34;12.20;99.90
13652;DHT22;6899;51.546;6.912;2022-10-17T00:09:01;12.10;99.90
13652;DHT22;6899;51.546;6.912;2022-10-17T00:11:28;12.00;99.90
13652;DHT22;6899;51.546;6.912;2022-10-17T00:13:55;12.10;99.90
13652;DHT22;6899;51.546;6.912;2022-10-17T00:16:25;12.10;99.90
13652;DHT22;6899;51.546;6.912;2022-10-17T00:18:53;12.10;99.90
13652;DHT22;6899;51.546;6.912;2022-10-17T00:21:20;12.10;99.90
13652;DHT22;6899;51.546;6.912;2022-10-17T00:23:47;12.10;99.90
13652;DHT22;6899;51.546;6.912;2022-10-17T00:26:15;12.10;99.90
13652;DHT22;6899;51.546;6.912;2022-10-17T00:28:45;12.00;99.90
13652;DHT22;6899;51.546;6.912;2022-10-17T00:31:12;12.00;99.90
13652;DHT22;6899;51.546;6.912;2022-10-17T00:33:40;11.90;99.90
13652;DHT22;6899;51.546;6.912;2022-10-17T00:36:12;11.90;99.90
13652;DHT22;6899;51.546;6.912;2022-10-17T00:38:41;11.90;99.90
13652;DHT22;6899;51.546;6.912;2022-10-17T00:41:09;11.90;99.90
13652;DHT22;6899;51.546;6.912;2022-10-17T00:43:54;11.90;99.90
13652;DHT22;6899;51.546;6.912;2022-10-17T00:46:22;11.90;99.90
13652;DHT22;6899;51.546;6.912;2022-10-17T00:48:53;11.80;99.90
13652;DHT22;6899;51.546;6.912;2022-10-17T00:51:26;11.90;99.90
13652;DHT22;6899;51.546;6.912;2022-10-17T00:53:56;11.90;99.90
13652;DHT22;6899;51.546;6.912;2022-10-17T00:56:23;11.90;99.90
13652;DHT22;6899;51.546;6.912;2022-10-17T00:59:00;11.90;99.90
13652;DHT22;6899;51.546;6.912;2022-10-17T01:01:27;11.90;99.90
13652;DHT22;6899;51.546;6.912;2022-10-17T01:03:55;11.90;99.90
13652;DHT22;6899;51.546;6.912;2022-10-17T01:06:22;11.90;99.90
13652;DHT22;6899;51.546;6.912;2022-10-17T01:08:49;11.90;99.90
13652;DHT22;6899;51.546;6.912;2022-10-17T01:11:29;12.00;99.90
13652;DHT22;6899;51.546;6.912;2022-10-17T01:14:04;12.00;99.90
13652;DHT22;6899;51.546;6.912;2022-10-17T01:16:40;12.00;99.90
13652;DHT22;6899;51.546;6.912;2022-10-17T01:22:12;12.00;99.90
13652;DHT22;6899;51.546;6.912;2022-10-17T01:25:10;11.90;99.90
13652;DHT22;6899;51.546;6.912;2022-10-17T01:27:54;11.80;99.90
13652;DHT22;6899;51.546;6.912;2022-10-17T01:30:53;11.80;99.90
13652;DHT22;6899;51.546;6.912;2022-10-17T01:33:37;11.70;99.90
13652;DHT22;6899;51.546;6.912;2022-10-17T01:36:11;11.70;99.90
13652;DHT22;6899;51.546;6.912;2022-10-17T01:38:46;11.70;99.90
13652;DHT22;6899;51.546;6.912;2022-10-17T01:41:21;11.80;99.90
13652;DHT22;6899;51.546;6.912;2022-10-17T01:43:56;11.80;99.90
13652;DHT22;6899;51.546;6.912;2022-10-17T01:46:29;11.80;99.90
13652;DHT22;6899;51.546;6.912;2022-10-17T01:48:59;11.70;99.90
13652;DHT22;6899;51.546;6.912;2022-10-17T01:51:30;11.70;99.90
13652;DHT22;6899;51.546;6.912;2022-10-17T01:54:01;11.70;99.90
13652;DHT22;6899;51.546;6.912;2022-10-17T01:56:30;11.70;99.90
13652;DHT22;6899;51.546;6.912;2022-10-17T01:59:01;11.70;99.90
13652;DHT22;6899;51.546;6.912;2022-10-17T02:01:32;11.70;99.90
13652;DHT22;6899;51.546;6.912;2022-10-17T02:04:02;11.60;99.90
13652;DHT22;6899;51.546;6.912;2022-10-17T02:06:33;11.60;99.90
13652;DHT22;6899;51.546;6.912;2022-10-17T02:09:13;11.60;99.90
13652;DHT22;6899;51.546;6.912;2022-10-17T02:11:43;11.60;99.90
13652;DHT22;6899;51.546;6.912;2022-10-17T02:14:20;11.50;99.90
13652;DHT22;6899;51.546;6.912;2022-10-17T02:16:53;11.60;99.90
13652;DHT22;6899;51.546;6.912;2022-10-17T02:19:46;11.50;99.90
13652;DHT22;6899;51.546;6.912;2022-10-17T02:22:24;11.50;99.90
13652;DHT22;6899;51.546;6.912;2022-10-17T02:24:58;11.50;99.90
13652;DHT22;6899;51.546;6.912;2022-10-17T02:27:33;11.50;99.90
13652;DHT22;6899;51.546;6.912;2022-10-17T02:30:09;11.40;99.90
13652;DHT22;6899;51.546;6.912;2022-10-17T02:32:42;11.50;99.90
13652;DHT22;6899;51.546;6.912;2022-10-17T02:35:12;11.50;99.90
13652;DHT22;6899;51.546;6.912;2022-10-17T02:37:42;11.60;99.90
13652;DHT22;6899;51.546;6.912;2022-10-17T02:40:11;11.70;99.90
13652;DHT22;6899;51.546;6.912;2022-10-17T02:42:42;11.70;99.90
13652;DHT22;6899;51.546;6.912;2022-10-17T02:45:12;11.70;99.90
13652;DHT22;6899;51.546;6.912;2022-10-17T02:47:48;11.70;99.90
13652;DHT22;6899;51.546;6.912;2022-10-17T02:50:17;11.70;99.90
13652;DHT22;6899;51.546;6.912;2022-10-17T02:52:47;11.70;99.90
13652;DHT22;6899;51.546;6.912;2022-10-17T02:55:21;11.80;99.90
13652;DHT22;6899;51.546;6.912;2022-10-17T02:57:51;11.80;99.90
13652;DHT22;6899;51.546;6.912;2022-10-17T03:00:20;11.80;99.90
13652;DHT22;6899;51.546;6.912;2022-10-17T03:02:51;11.80;99.90
13652;DHT22;6899;51.546;6.912;2022-10-17T03:05:19;11.80;99.90
13652;DHT22;6899;51.546;6.912;2022-10-17T03:07:48;11.80;99.90
13652;DHT22;6899;51.546;6.912;2022-10-17T03:10:15;11.80;99.90
13652;DHT22;6899;51.546;6.912;2022-10-17T03:12:42;11.80;99.90
13652;DHT22;6899;51.546;6.912;2022-10-17T03:15:10;11.80;99.90
13652;DHT22;6899;51.546;6.912;2022-10-17T03:17:37;11.80;99.90
13652;DHT22;6899;51.546;6.912;2022-10-17T03:20:06;11.90;99.90
13652;DHT22;6899;51.546;6.912;2022-10-17T03:22:33;12.00;99.90
13652;DHT22;6899;51.546;6.912;2022-10-17T03:25:00;12.30;99.90
13652;DHT22;6899;51.546;6.912;2022-10-17T03:27:27;12.30;99.90
13652;DHT22;6899;51.546;6.912;2022-10-17T03:29:54;12.40;99.90
13652;DHT22;6899;51.546;6.912;2022-10-17T03:32:21;12.40;99.90
13652;DHT22;6899;51.546;6.912;2022-10-17T03:34:48;12.50;99.90
13652;DHT22;6899;51.546;6.912;2022-10-17T03:37:16;12.50;99.90
13652;DHT22;6899;51.546;6.912;2022-10-17T03:39:43;12.60;99.90
13652;DHT22;6899;51.546;6.912;2022-10-17T03:42:10;12.70;99.90
13652;DHT22;6899;51.546;6.912;2022-10-17T03:44:43;12.80;99.90
13652;DHT22;6899;51.546;6.912;2022-10-17T03:47:12;13.20;99.90
13652;DHT22;6899;51.546;6.912;2022-10-17T03:49:39;13.30;99.90
13652;DHT22;6899;51.546;6.912;2022-10-17T03:52:10;13.50;99.90
13652;DHT22;6899;51.546;6.912;2022-10-17T03:54:38;13.60;99.90
13652;DHT22;6899;51.546;6.912;2022-10-17T03:57:05;13.80;99.90
13652;DHT22;6899;51.546;6.912;2022-10-17T03:59:32;14.00;99.90
13652;DHT22;6899;51.546;6.912;2022-10-17T04:01:59;14.00;99.90
13652;DHT22;6899;51.546;6.912;2022-10-17T04:04:26;13.90;99.90
13652;DHT22;6899;51.546;6.912;2022-10-17T04:06:53;13.90;99.90
13652;DHT22;6899;51.546;6.912;2022-10-17T04:09:20;13.90;99.90
13652;DHT22;6899;51.546;6.912;2022-10-17T04:11:48;13.90;99.90
13652;DHT22;6899;51.546;6.912;2022-10-17T04:14:15;13.90;99.90
13652;DHT22;6899;51.546;6.912;2022-10-17T04:16:42;13.80;99.90
13652;DHT22;6899;51.546;6.912;2022-10-17T04:19:11;13.90;99.90
13652;DHT22;6899;51.546;6.912;2022-10-17T04:21:38;14.00;99.90
13652;DHT22;6899;51.546;6.912;2022-10-17T04:24:05;14.00;99.90
13652;DHT22;6899;51.546;6.912;2022-10-17T04:26:32;14.00;99.90
13652;DHT22;6899;51.546;6.912;2022-10-17T04:29:00;14.00;99.90
13652;DHT22;6899;51.546;6.912;2022-10-17T04:31:27;14.10;99.90
13652;DHT22;6899;51.546;6.912;2022-10-17T04:33:54;14.20;99.90
13652;DHT22;6899;51.546;6.912;2022-10-17T04:36:21;14.20;99.90
13652;DHT22;6899;51.546;6.912;2022-10-17T04:38:48;14.20;99.90
13652;DHT22;6899;51.546;6.912;2022-10-17T04:41:16;14.20;99.90
13652;DHT22;6899;51.546;6.912;2022-10-17T04:43:44;14.30;99.90
13652;DHT22;6899;51.546;6.912;2022-10-17T04:46:13;14.30;99.90
13652;DHT22;6899;51.546;6.912;2022-10-17T04:48:41;14.40;99.90
13652;DHT22;6899;51.546;6.912;2022-10-17T04:51:11;14.50;99.90
13652;DHT22;6899;51.546;6.912;2022-10-17T04:53:39;14.50;99.90
13652;DHT22;6899;51.546;6.912;2022-10-17T04:56:10;14.50;99.90
13652;DHT22;6899;51.546;6.912;2022-10-17T04:58:38;14.50;99.90
13652;DHT22;6899;51.546;6.912;2022-10-17T05:01:06;14.60;99.90
13652;DHT22;6899;51.546;6.912;2022-10-17T05:03:41;14.50;99.90
13652;DHT22;6899;51.546;6.912;2022-10-17T05:06:15;14.50;99.90
13652;DHT22;6899;51.546;6.912;2022-10-17T05:08:43;14.50;99.90
13652;DHT22;6899;51.546;6.912;2022-10-17T05:11:17;14.40;99.90
13652;DHT22;6899;51.546;6.912;2022-10-17T05:13:49;14.50;99.90
13652;DHT22;6899;51.546;6.912;2022-10-17T05:16:16;14.50;99.90
13652;DHT22;6899;51.546;6.912;2022-10-17T05:18:47;14.50;99.90
13652;DHT22;6899;51.546;6.912;2022-10-17T05:21:14;14.60;99.90
13652;DHT22;6899;51.546;6.912;2022-10-17T05:23:43;14.60;99.90
13652;DHT22;6899;51.546;6.912;2022-10-17T05:26:11;14.60;99.90
13652;DHT22;6899;51.546;6.912;2022-10-17T05:28:38;14.70;99.90
13652;DHT22;6899;51.546;6.912;2022-10-17T05:31:06;14.70;99.90
13652;DHT22;6899;51.546;6.912;2022-10-17T05:33:34;14.70;99.90
13652;DHT22;6899;51.546;6.912;2022-10-17T05:36:03;14.80;99.90
13652;DHT22;6899;51.546;6.912;2022-10-17T05:38:31;14.80;99.90
13652;DHT22;6899;51.546;6.912;2022-10-17T05:40:58;14.80;99.90
13652;DHT22;6899;51.546;6.912;2022-10-17T05:43:26;14.80;99.90
13652;DHT22;6899;51.546;6.912;2022-10-17T05:45:53;14.80;99.90
13652;DHT22;6899;51.546;6.912;2022-10-17T05:48:21;14.70;99.90
13652;DHT22;6899;51.546;6.912;2022-10-17T05:50:49;14.80;99.90
13652;DHT22;6899;51.546;6.912;2022-10-17T05:53:17;14.70;99.90
13652;DHT22;6899;51.546;6.912;2022-10-17T05:55:44;14.70;99.90
13652;DHT22;6899;51.546;6.912;2022-10-17T05:58:11;14.80;99.90
13652;DHT22;6899;51.546;6.912;2022-10-17T06:00:37;14.80;99.90
13652;DHT22;6899;51.546;6.912;2022-10-17T06:03:04;14.70;99.90
13652;DHT22;6899;51.546;6.912;2022-10-17T06:05:34;14.70;99.90
13652;DHT22;6899;51.546;6.912;2022-10-17T06:08:01;14.80;99.90
13652;DHT22;6899;51.546;6.912;2022-10-17T06:10:29;14.80;99.90
13652;DHT22;6899;51.546;6.912;2022-10-17T06:12:56;14.80;99.90
13652;DHT22;6899;51.546;6.912;2022-10-17T06:15:22;14.80;99.90
13652;DHT22;6899;51.546;6.912;2022-10-17T06:17:49;14.90;99.90
13652;DHT22;6899;51.546;6.912;2022-10-17T06:20:16;15.00;99.90
13652;DHT22;6899;51.546;6.912;2022-10-17T06:22:43;15.00;99.90
13652;DHT22;6899;51.546;6.912;2022-10-17T06:25:10;15.00;99.90
13652;DHT22;6899;51.546;6.912;2022-10-17T06:27:38;15.00;99.90
13652;DHT22;6899;51.546;6.912;2022-10-17T06:30:06;15.10;99.90
13652;DHT22;6899;51.546;6.912;2022-10-17T06:32:33;15.10;99.90
13652;DHT22;6899;51.546;6.912;2022-10-17T06:35:00;15.10;99.90
13652;DHT22;6899;51.546;6.912;2022-10-17T06:37:29;15.20;99.90
13652;DHT22;6899;51.546;6.912;2022-10-17T06:39:57;15.20;99.90
13652;DHT22;6899;51.546;6.912;2022-10-17T06:42:24;15.20;99.90
13652;DHT22;6899;51.546;6.912;2022-10-17T06:44:52;15.20;99.90
13652;DHT22;6899;51.546;6.912;2022-10-17T06:47:19;15.30;99.90
13652;DHT22;6899;51.546;6.912;2022-10-17T06:49:49;15.40;99.90
13652;DHT22;6899;51.546;6.912;2022-10-17T06:52:16;15.50;99.90
13652;DHT22;6899;51.546;6.912;2022-10-17T06:54:43;15.50;99.90
13652;DHT22;6899;51.546;6.912;2022-10-17T06:57:10;15.60;99.90
13652;DHT22;6899;51.546;6.912;2022-10-17T06:59:37;15.60;99.90
13652;DHT22;6899;51.546;6.912;2022-10-17T07:02:05;15.70;99.90
13652;DHT22;6899;51.546;6.912;2022-10-17T07:04:32;15.80;99.90
13652;DHT22;6899;51.546;6.912;2022-10-17T07:06:59;15.80;99.90
13652;DHT22;6899;51.546;6.912;2022-10-17T07:09:27;15.80;99.90
13652;DHT22;6899;51.546;6.912;2022-10-17T07:11:54;15.90;99.90
13652;DHT22;6899;51.546;6.912;2022-10-17T07:14:21;15.90;99.90
13652;DHT22;6899;51.546;6.912;2022-10-17T07:16:48;15.90;99.90
13652;DHT22;6899;51.546;6.912;2022-10-17T07:19:16;16.00;99.90
13652;DHT22;6899;51.546;6.912;2022-10-17T07:21:43;16.20;99.90
13652;DHT22;6899;51.546;6.912;2022-10-17T07:24:10;16.20;99.90
13652;DHT22;6899;51.546;6.912;2022-10-17T07:26:36;16.30;99.90
13652;DHT22;6899;51.546;6.912;2022-10-17T07:29:03;16.40;99.90
13652;DHT22;6899;51.546;6.912;2022-10-17T07:31:32;16.50;99.90
13652;DHT22;6899;51.546;6.912;2022-10-17T07:33:59;16.60;99.90
13652;DHT22;6899;51.546;6.912;2022-10-17T07:36:27;16.80;99.90
13652;DHT22;6899;51.546;6.912;2022-10-17T07:38:55;17.10;99.90
13652;DHT22;6899;51.546;6.912;2022-10-17T07:41:21;17.10;99.90
13652;DHT22;6899;51.546;6.912;2022-10-17T07:43:48;17.40;99.90
13652;DHT22;6899;51.546;6.912;2022-10-17T07:46:15;17.60;99.90
13652;DHT22;6899;51.546;6.912;2022-10-17T07:48:42;17.70;99.90
13652;DHT22;6899;51.546;6.912;2022-10-17T07:51:09;17.90;99.90
13652;DHT22;6899;51.546;6.912;2022-10-17T07:53:38;18.00;99.90
13652;DHT22;6899;51.546;6.912;2022-10-17T07:56:06;18.20;99.90
13652;DHT22;6899;51.546;6.912;2022-10-17T07:58:33;18.30;99.90
13652;DHT22;6899;51.546;6.912;2022-10-17T08:01:01;18.50;99.90
13652;DHT22;6899;51.546;6.912;2022-10-17T08:03:28;18.50;99.90
13652;DHT22;6899;51.546;6.912;2022-10-17T08:05:58;18.50;99.90
13652;DHT22;6899;51.546;6.912;2022-10-17T08:08:29;18.50;99.90
13652;DHT22;6899;51.546;6.912;2022-10-17T08:11:02;18.90;99.90
13652;DHT22;6899;51.546;6.912;2022-10-17T08:13:29;19.10;99.90
13652;DHT22;6899;51.546;6.912;2022-10-17T08:15:59;19.20;99.90
13652;DHT22;6899;51.546;6.912;2022-10-17T08:18:25;19.50;99.90
13652;DHT22;6899;51.546;6.912;2022-10-17T08:20:52;19.60;99.90
13652;DHT22;6899;51.546;6.912;2022-10-17T08:23:19;19.60;99.90
13652;DHT22;6899;51.546;6.912;2022-10-17T08:25:46;19.70;99.90
13652;DHT22;6899;51.546;6.912;2022-10-17T08:28:14;20.00;99.90
13652;DHT22;6899;51.546;6.912;2022-10-17T08:30:41;20.10;99.90
13652;DHT22;6899;51.546;6.912;2022-10-17T08:33:08;20.20;99.90
13652;DHT22;6899;51.546;6.912;2022-10-17T08:35:35;20.20;99.90
13652;DHT22;6899;51.546;6.912;2022-10-17T08:38:02;20.10;99.90
13652;DHT22;6899;51.546;6.912;2022-10-17T08:40:31;20.20;99.90
13652;DHT22;6899;51.546;6.912;2022-10-17T08:43:20;20.40;99.90
13652;DHT22;6899;51.546;6.912;2022-10-17T08:45:52;20.60;99.90
13652;DHT22;6899;51.546;6.912;2022-10-17T08:48:23;20.50;99.90
13652;DHT22;6899;51.546;6.912;2022-10-17T08:50:53;20.60;99.90
13652;DHT22;6899;51.546;6.912;2022-10-17T08:53:26;20.70;99.90
13652;DHT22;6899;51.546;6.912;2022-10-17T08:55:55;20.50;99.90
13652;DHT22;6899;51.546;6.912;2022-10-17T08:58:24;20.30;99.90
13652;DHT22;6899;51.546;6.912;2022-10-17T09:01:03;20.10;99.90
13652;DHT22;6899;51.546;6.912;2022-10-17T09:03:49;20.00;99.90
13652;DHT22;6899;51.546;6.912;2022-10-17T09:06:21;19.90;99.90
13652;DHT22;6899;51.546;6.912;2022-10-17T09:09:06;19.90;99.90
13652;DHT22;6899;51.546;6.912;2022-10-17T09:11:47;19.80;99.90
13652;DHT22;6899;51.546;6.912;2022-10-17T09:14:33;19.90;99.90
13652;DHT22;6899;51.546;6.912;2022-10-17T09:17:11;20.30;99.90
13652;DHT22;6899;51.546;6.912;2022-10-17T09:19:43;20.50;99.90
13652;DHT22;6899;51.546;6.912;2022-10-17T09:22:19;20.50;99.90
13652;DHT22;6899;51.546;6.912;2022-10-17T09:24:50;20.80;99.90
13652;DHT22;6899;51.546;6.912;2022-10-17T09:27:23;21.00;99.90
13652;DHT22;6899;51.546;6.912;2022-10-17T09:29:54;21.40;99.90
13652;DHT22;6899;51.546;6.912;2022-10-17T09:32:24;21.40;99.90
13652;DHT22;6899;51.546;6.912;2022-10-17T09:34:52;21.70;99.90
13652;DHT22;6899;51.546;6.912;2022-10-17T09:37:23;21.60;99.90
13652;DHT22;6899;51.546;6.912;2022-10-17T09:39:51;21.80;99.90
13652;DHT22;6899;51.546;6.912;2022-10-17T09:42:19;21.90;99.90
13652;DHT22;6899;51.546;6.912;2022-10-17T09:44:53;21.70;99.90
13652;DHT22;6899;51.546;6.912;2022-10-17T09:47:24;21.50;99.90
13652;DHT22;6899;51.546;6.912;2022-10-17T09:49:54;21.40;99.90
13652;DHT22;6899;51.546;6.912;2022-10-17T09:52:25;21.50;99.90
13652;DHT22;6899;51.546;6.912;2022-10-17T09:54:57;21.60;99.90
13652;DHT22;6899;51.546;6.912;2022-10-17T09:57:25;21.60;99.90
13652;DHT22;6899;51.546;6.912;2022-10-17T09:59:58;21.40;99.90
13652;DHT22;6899;51.546;6.912;2022-10-17T10:02:26;21.40;99.90
13652;DHT22;6899;51.546;6.912;2022-10-17T10:05:00;21.10;99.90
13652;DHT22;6899;51.546;6.912;2022-10-17T10:07:29;20.90;99.90
13652;DHT22;6899;51.546;6.912;2022-10-17T10:09:57;21.00;99.90
13652;DHT22;6899;51.546;6.912;2022-10-17T10:12:26;21.00;99.90
13652;DHT22;6899;51.546;6.912;2022-10-17T10:14:55;21.10;99.90
13652;DHT22;6899;51.546;6.912;2022-10-17T10:17:36;21.30;99.90
13652;DHT22;6899;51.546;6.912;2022-10-17T10:20:27;21.10;99.90
13652;DHT22;6899;51.546;6.912;2022-10-17T10:23:11;20.80;99.90
13652;DHT22;6899;51.546;6.912;2022-10-17T10:25:48;20.40;99.90
13652;DHT22;6899;51.546;6.912;2022-10-17T10:28:17;20.00;99.90
13652;DHT22;6899;51.546;6.912;2022-10-17T10:30:50;19.80;99.90
13652;DHT22;6899;51.546;6.912;2022-10-17T10:33:18;19.80;99.90
13652;DHT22;6899;51.546;6.912;2022-10-17T10:35:55;19.70;99.90
13652;DHT22;6899;51.546;6.912;2022-10-17T10:38:23;20.00;99.90
13652;DHT22;6899;51.546;6.912;2022-10-17T10:40:52;20.20;99.90
13652;DHT22;6899;51.546;6.912;2022-10-17T10:43:31;20.50;99.90
13652;DHT22;6899;51.546;6.912;2022-10-17T10:46:01;20.90;99.90
13652;DHT22;6899;51.546;6.912;2022-10-17T10:48:31;20.90;99.90
13652;DHT22;6899;51.546;6.912;2022-10-17T10:51:03;21.00;99.90
13652;DHT22;6899;51.546;6.912;2022-10-17T10:53:40;21.00;99.90
13652;DHT22;6899;51.546;6.912;2022-10-17T10:56:15;21.10;99.90
13652;DHT22;6899;51.546;6.912;2022-10-17T10:58:51;21.30;99.90
13652;DHT22;6899;51.546;6.912;2022-10-17T11:01:25;21.20;99.90
13652;DHT22;6899;51.546;6.912;2022-10-17T11:04:11;20.90;99.90
13652;DHT22;6899;51.546;6.912;2022-10-17T11:06:43;20.50;99.90
13652;DHT22;6899;51.546;6.912;2022-10-17T11:09:17;20.20;99.90
13652;DHT22;6899;51.546;6.912;2022-10-17T11:11:52;19.90;99.90
13652;DHT22;6899;51.546;6.912;2022-10-17T11:14:33;19.70;99.90
13652;DHT22;6899;51.546;6.912;2022-10-17T11:17:09;19.60;99.90
13652;DHT22;6899;51.546;6.912;2022-10-17T11:19:43;19.40;99.90
13652;DHT22;6899;51.546;6.912;2022-10-17T11:22:15;19.10;99.90
13652;DHT22;6899;51.546;6.912;2022-10-17T11:24:47;18.70;99.90
13652;DHT22;6899;51.546;6.912;2022-10-17T11:27:22;18.60;99.90
13652;DHT22;6899;51.546;6.912;2022-10-17T11:29:50;18.50;99.90
13652;DHT22;6899;51.546;6.912;2022-10-17T11:32:21;18.50;99.90
13652;DHT22;6899;51.546;6.912;2022-10-17T11:34:53;18.70;99.90
13652;DHT22;6899;51.546;6.912;2022-10-17T11:37:26;18.80;99.90
13652;DHT22;6899;51.546;6.912;2022-10-17T11:39:57;18.90;99.90
13652;DHT22;6899;51.546;6.912;2022-10-17T11:42:29;19.00;99.90
13652;DHT22;6899;51.546;6.912;2022-10-17T11:45:00;19.00;99.90
13652;DHT22;6899;51.546;6.912;2022-10-17T11:47:38;19.00;99.90
13652;DHT22;6899;51.546;6.912;2022-10-17T11:50:19;19.10;99.90
13652;DHT22;6899;51.546;6.912;2022-10-17T11:52:50;19.20;99.90
13652;DHT22;6899;51.546;6.912;2022-10-17T11:55:20;19.20;99.90
13652;DHT22;6899;51.546;6.912;2022-10-17T11:57:59;19.20;99.90
13652;DHT22;6899;51.546;6.912;2022-10-17T12:00:36;19.30;99.90
13652;DHT22;6899;51.546;6.912;2022-10-17T12:03:16;19.30;99.90
13652;DHT22;6899;51.546;6.912;2022-10-17T12:05:49;19.40;99.90
13652;DHT22;6899;51.546;6.912;2022-10-17T12:08:23;19.60;99.90
13652;DHT22;6899;51.546;6.912;2022-10-17T12:10:55;19.50;99.90
13652;DHT22;6899;51.546;6.912;2022-10-17T12:13:49;19.50;99.90
13652;DHT22;6899;51.546;6.912;2022-10-17T12:16:45;19.50;99.90
13652;DHT22;6899;51.546;6.912;2022-10-17T12:19:30;19.50;99.90
13652;DHT22;6899;51.546;6.912;2022-10-17T12:22:22;19.40;99.90
13652;DHT22;6899;51.546;6.912;2022-10-17T12:24:55;19.30;99.90
13652;DHT22;6899;51.546;6.912;2022-10-17T12:27:43;19.30;99.90
13652;DHT22;6899;51.546;6.912;2022-10-17T12:30:20;19.20;99.90
13652;DHT22;6899;51.546;6.912;2022-10-17T12:33:01;19.10;99.90
13652;DHT22;6899;51.546;6.912;2022-10-17T12:35:31;19.10;99.90
13652;DHT22;6899;51.546;6.912;2022-10-17T12:38:26;19.10;99.90
13652;DHT22;6899;51.546;6.912;2022-10-17T12:41:01;19.00;99.90
13652;DHT22;6899;51.546;6.912;2022-10-17T12:43:42;18.80;99.90
13652;DHT22;6899;51.546;6.912;2022-10-17T12:46:09;18.80;99.90
13652;DHT22;6899;51.546;6.912;2022-10-17T12:52:24;19.00;99.90
13652;DHT22;6899;51.546;6.912;2022-10-17T12:54:55;19.20;99.90
13652;DHT22;6899;51.546;6.912;2022-10-17T12:57:29;19.40;99.90
13652;DHT22;6899;51.546;6.912;2022-10-17T12:59:57;19.30;99.90
13652;DHT22;6899;51.546;6.912;2022-10-17T13:02:26;19.30;99.90
13652;DHT22;6899;51.546;6.912;2022-10-17T13:05:02;19.40;99.90
13652;DHT22;6899;51.546;6.912;2022-10-17T13:07:33;19.40;99.90
13652;DHT22;6899;51.546;6.912;2022-10-17T13:10:00;19.50;99.90
13652;DHT22;6899;51.546;6.912;2022-10-17T13:12:31;19.50;99.90
13652;DHT22;6899;51.546;6.912;2022-10-17T13:15:03;19.50;99.90
13652;DHT22;6899;51.546;6.912;2022-10-17T13:17:32;19.50;99.90
13652;DHT22;6899;51.546;6.912;2022-10-17T13:20:00;19.50;99.90
13652;DHT22;6899;51.546;6.912;2022-10-17T13:22:29;19.50;99.90
13652;DHT22;6899;51.546;6.912;2022-10-17T13:25:08;19.50;99.90
13652;DHT22;6899;51.546;6.912;2022-10-17T13:27:35;19.40;99.90
13652;DHT22;6899;51.546;6.912;2022-10-17T13:30:22;19.50;99.90
13652;DHT22;6899;51.546;6.912;2022-10-17T13:32:49;19.50;99.90
13652;DHT22;6899;51.546;6.912;2022-10-17T13:35:22;19.50;99.90
13652;DHT22;6899;51.546;6.912;2022-10-17T13:37:51;19.40;99.90
13652;DHT22;6899;51.546;6.912;2022-10-17T13:40:22;19.40;99.90
13652;DHT22;6899;51.546;6.912;2022-10-17T13:42:50;19.30;99.90
13652;DHT22;6899;51.546;6.912;2022-10-17T13:45:21;19.30;99.90
13652;DHT22;6899;51.546;6.912;2022-10-17T13:47:50;19.20;99.90
13652;DHT22;6899;51.546;6.912;2022-10-17T13:50:22;19.10;99.90
13652;DHT22;6899;51.546;6.912;2022-10-17T13:53:05;19.00;99.90
13652;DHT22;6899;51.546;6.912;2022-10-17T13:55:33;19.00;99.90
13652;DHT22;6899;51.546;6.912;2022-10-17T13:58:14;19.00;99.90
13652;DHT22;6899;51.546;6.912;2022-10-17T14:00:43;19.10;99.90
13652;DHT22;6899;51.546;6.912;2022-10-17T14:03:10;19.40;99.90
13652;DHT22;6899;51.546;6.912;2022-10-17T14:06:11;19.60;99.90
13652;DHT22;6899;51.546;6.912;2022-10-17T14:08:44;20.00;99.90
13652;DHT22;6899;51.546;6.912;2022-10-17T14:11:18;20.10;99.90
13652;DHT22;6899;51.546;6.912;2022-10-17T14:13:48;20.30;99.90
13652;DHT22;6899;51.546;6.912;2022-10-17T14:16:16;20.50;99.90
13652;DHT22;6899;51.546;6.912;2022-10-17T14:18:46;20.60;99.90
13652;DHT22;6899;51.546;6.912;2022-10-17T14:21:18;20.50;99.90
13652;DHT22;6899;51.546;6.912;2022-10-17T14:23:46;20.40;99.90
13652;DHT22;6899;51.546;6.912;2022-10-17T14:26:16;20.40;99.90
13652;DHT22;6899;51.546;6.912;2022-10-17T14:28:47;20.30;99.90
13652;DHT22;6899;51.546;6.912;2022-10-17T14:31:24;20.20;99.90
13652;DHT22;6899;51.546;6.912;2022-10-17T14:33:52;20.00;99.90
13652;DHT22;6899;51.546;6.912;2022-10-17T14:36:28;19.90;99.90
13652;DHT22;6899;51.546;6.912;2022-10-17T14:38:55;19.70;99.90
13652;DHT22;6899;51.546;6.912;2022-10-17T14:41:25;19.50;99.90
13652;DHT22;6899;51.546;6.912;2022-10-17T14:43:54;19.50;99.90
13652;DHT22;6899;51.546;6.912;2022-10-17T14:46:22;19.40;99.90
13652;DHT22;6899;51.546;6.912;2022-10-17T14:48:54;19.40;99.90
13652;DHT22;6899;51.546;6.912;2022-10-17T14:51:21;19.40;99.90
13652;DHT22;6899;51.546;6.912;2022-10-17T14:54:04;19.50;99.90
13652;DHT22;6899;51.546;6.912;2022-10-17T14:56:39;19.40;99.90
13652;DHT22;6899;51.546;6.912;2022-10-17T14:59:06;19.30;99.90
13652;DHT22;6899;51.546;6.912;2022-10-17T15:01:34;19.20;99.90
13652;DHT22;6899;51.546;6.912;2022-10-17T15:04:02;19.20;99.90
13652;DHT22;6899;51.546;6.912;2022-10-17T15:06:31;19.10;99.90
13652;DHT22;6899;51.546;6.912;2022-10-17T15:08:59;19.00;99.90
13652;DHT22;6899;51.546;6.912;2022-10-17T15:11:26;19.10;99.90
13652;DHT22;6899;51.546;6.912;2022-10-17T15:13:54;19.00;99.90
13652;DHT22;6899;51.546;6.912;2022-10-17T15:16:23;19.00;99.90
13652;DHT22;6899;51.546;6.912;2022-10-17T15:18:51;19.10;99.90
13652;DHT22;6899;51.546;6.912;2022-10-17T15:21:19;19.00;99.90
13652;DHT22;6899;51.546;6.912;2022-10-17T15:23:50;18.90;99.90
13652;DHT22;6899;51.546;6.912;2022-10-17T15:26:18;18.80;99.90
13652;DHT22;6899;51.546;6.912;2022-10-17T15:28:46;18.60;99.90
13652;DHT22;6899;51.546;6.912;2022-10-17T15:31:17;18.50;99.90
13652;DHT22;6899;51.546;6.912;2022-10-17T15:33:44;18.40;99.90
13652;DHT22;6899;51.546;6.912;2022-10-17T15:36:19;18.20;99.90
13652;DHT22;6899;51.546;6.912;2022-10-17T15:38:47;18.10;99.90
13652;DHT22;6899;51.546;6.912;2022-10-17T15:41:14;18.00;99.90
13652;DHT22;6899;51.546;6.912;2022-10-17T15:43:41;18.00;99.90
13652;DHT22;6899;51.546;6.912;2022-10-17T15:46:13;17.80;99.90
13652;DHT22;6899;51.546;6.912;2022-10-17T15:48:42;17.80;99.90
13652;DHT22;6899;51.546;6.912;2022-10-17T15:51:09;17.70;99.90
13652;DHT22;6899;51.546;6.912;2022-10-17T15:53:36;17.70;99.90
13652;DHT22;6899;51.546;6.912;2022-10-17T15:56:03;17.60;99.90
13652;DHT22;6899;51.546;6.912;2022-10-17T15:58:34;17.50;99.90
13652;DHT22;6899;51.546;6.912;2022-10-17T16:01:02;17.50;99.90
13652;DHT22;6899;51.546;6.912;2022-10-17T16:03:29;17.50;99.90
13652;DHT22;6899;51.546;6.912;2022-10-17T16:05:57;17.40;99.90
13652;DHT22;6899;51.546;6.912;2022-10-17T16:08:24;17.30;99.90
13652;DHT22;6899;51.546;6.912;2022-10-17T16:10:52;17.30;99.90
13652;DHT22;6899;51.546;6.912;2022-10-17T16:13:21;17.20;99.90
13652;DHT22;6899;51.546;6.912;2022-10-17T16:15:48;17.20;99.90